• Join FlightAware (Why Join?)
  • Login
  • US Flag 
07:01AM EDT


 

Airport Tracker/Info


-or-


 

Live Flight TrackerFlight Track Log ✈ LYM1725 ✈ 01-May-2013 ✈ KRIW - KCOD

Flight Track Log - Related Links

Times and Time Zones

All times are in EDT time to prevent confusion due to time zone crossing. See the LYM1725 flight status page for this flight to view local times or setup timezone preferences in your user account.

Time Position Orientation Groundspeed Altitude Reporting Facility
EDT Latitude Longitude Course Direction KTS MPH feet Rate Location/Type
10:29AM 43.0525 -108.4731 346° North 198 228 8,900  Level Salt Lake Center
10:30AM 43.4196 -108.5939 342° North  Level FlightAware Approximate
10:30AM 43.0600 -108.4283 77° East 175 201 11,000  Level Salt Lake Center
10:31AM 43.4815 -108.6160 346° North  Level FlightAware Approximate
10:31AM 43.0333 -108.3717 123° Southeast 186 214 12,700  Level Salt Lake Center
10:32AM 43.5438 -108.6368 346° North  Level FlightAware Approximate
10:32AM 43.0317 -108.4183 267° West 198 228 14,800  Level Salt Lake Center
10:33AM 43.6061 -108.6576 346° North  Level FlightAware Approximate
10:33AM 43.0761 -108.4506 332° Northwest 189 217 16,300  Level Salt Lake Center
10:34AM 43.6683 -108.6783 346° North  Level FlightAware Approximate
10:34AM 43.1467 -108.4836 341° North 234 269 16,000  Level Salt Lake Center
10:35AM 43.2183 -108.5089 346° North 269 310 16,100  Climbing Salt Lake Center
10:36AM 43.3044 -108.5375 346° North 280 322 16,100  Level Salt Lake Center
10:37AM 43.3778 -108.5653 345° North 283 326 16,100 -60 Level Salt Lake Center
10:38AM 43.4531 -108.5903 346° North 287 330 16,000  Descending Salt Lake Center
10:39AM 43.5417 -108.6139 349° North 290 334 16,100  Climbing Salt Lake Center
10:40AM 43.6203 -108.6242 355° North 293 337 16,000  Descending Salt Lake Center
10:41AM 43.7069 -108.6517 347° North 289 333 16,200  Climbing Salt Lake Center
10:42AM 43.7792 -108.6886 340° North 285 328 16,000 -60 Descending Salt Lake Center
10:43AM 43.8531 -108.7206 343° North 288 331 16,100 -60 Climbing Salt Lake Center
10:44AM 43.9408 -108.7547 344° North 290 334 15,900 -540 Descending Salt Lake Center
10:45AM 44.0194 -108.7764 349° North 295 339 15,000 -900 Descending Salt Lake Center
10:47AM 44.0961 -108.8484 344° North  Level FlightAware Approximate
10:54AM 44.5167 -109.0167 345° North  Level FlightAware Approximate
10:55AM 44.5202 -109.0238 345° North  Level Estimated
10:56AM 44.5167 -109.0167 345° North  Level FlightAware Approximate
10:57AM 44.5202 -109.0238 345° North  Level Estimated
10:58AM 44.5167 -109.0167 345° North  Level FlightAware Approximate
10:59AM 44.5202 -109.0238 345° North  Level Estimated
11:00AM 44.5167 -109.0167 345° North  Level FlightAware Approximate
11:01AM 44.5202 -109.0238 345° North  Level Estimated
11:02AM 44.5167 -109.0167 345° North  Level FlightAware Approximate
11:03AM 44.5202 -109.0238 345° North  Level Estimated